Have a Safe July 4th! 

Flight Track Log - Related Links

Times and Time Zones

All times are in EDT time to prevent confusion due to time zone crossing. See the UAL532 flight status page for this flight to view local times or setup timezone preferences in your user account.

Time Position Orientation Groundspeed Altitude Reporting Facility
EDT Latitude Longitude Course Direction KTS MPH feet Rate Location/Type
Tue 07:57:23 AM 39.8833 -104.5333 66° East 216 249 7,000  Level Denver TRACON
Tue 07:58:13 AM 39.8789 -104.4597 94° East 259 298 8,200 1,855 Climbing Denver Center
Tue 07:59:00 AM 39.9327 -104.2207 78° East  Level FlightAware Approximate
Tue 07:59:13 AM 39.9008 -104.3556 75° East 300 345 10,400  Level Denver Center
Tue 08:00:00 AM 39.9577 -104.0708 78° East  Level FlightAware Approximate
Tue 08:00:13 AM 39.9269 -104.2300 75° East 365 420 12,000  Level Denver Center
Tue 08:01:00 AM 39.9850 -103.9216 79° East  Level FlightAware Approximate
Tue 08:01:14 AM 39.9547 -104.0908 75° East 395 455 15,500  Level Denver Center
Tue 08:02:00 AM 40.0143 -103.7738 66° East  Level FlightAware Approximate
Tue 08:02:14 AM 39.9808 -103.9636 75° East 362 417 20,000  Level Denver Center
Tue 08:03:15 AM 40.0064 -103.8392 75° East 356 410 21,900 1,339 Climbing Denver Center
Tue 08:04:15 AM 40.0331 -103.7014 76° East 406 467 22,700 1,388 Climbing Denver Center
Tue 08:05:16 AM 40.0586 -103.5400 78° East 453 521 24,700 1,835 Climbing Denver Center
Tue 08:06:16 AM 40.0853 -103.3739 78° East 466 536 26,400 1,438 Climbing Denver Center
Tue 08:07:17 AM 40.1136 -103.2025 78° East 483 556 27,600 1,091 Climbing Denver Center
Tue 08:08:17 AM 40.1403 -103.0286 79° East 490 564 28,600 992 Climbing Denver Center
Tue 08:09:18 AM 40.1678 -102.8531 78° East 494 568 29,600 1,041 Climbing Denver Center
Tue 08:10:18 AM 40.1975 -102.6619 78° East 495 570 30,700 1,041 Climbing Denver Center
Tue 08:11:19 AM 40.2244 -102.4917 78° East 498 573 31,700 1,240 Climbing Denver Center
Tue 08:12:19 AM 40.2539 -102.2942 79° East 496 571 33,200 1,339 Climbing Denver Center
Tue 08:13:20 AM 40.2792 -102.1278 79° East 489 563 34,400 843 Climbing Denver Center
Tue 08:14:20 AM 40.3036 -101.9619 79° East 487 560 34,900 298 Climbing Denver Center
Tue 08:15:21 AM 40.3297 -101.7967 78° East 485 558 35,000 49 Climbing Denver Center
Tue 08:16:22 AM 40.3569 -101.6042 79° East 482 555 35,000  Level Denver Center
Tue 08:17:22 AM 40.3803 -101.4392 79° East 482 555 35,000  Level Denver Center
Tue 08:18:35 AM 40.4081 -101.2472 79° East 482 555 35,000  Level Denver Center
Tue 08:19:36 AM 40.4344 -101.0556 80° East 482 555 35,000  Level Denver Center
Tue 08:20:37 AM 40.4756 -100.8700 74° East 482 555 35,000  Level Denver Center
Tue 08:21:37 AM 40.5292 -100.7208 65° Northeast 479 551 35,000  Level Denver Center
Tue 08:22:38 AM 40.5839 -100.5719 64° Northeast 478 550 35,000  Level Denver Center
Tue 08:23:39 AM 40.6483 -100.3961 64° Northeast 481 554 35,000  Level Denver Center
Tue 08:24:40 AM 40.7044 -100.2464 64° Northeast 479 551 35,000  Level Denver Center
Tue 08:25:41 AM 40.7597 -100.0956 64° Northeast 480 552 35,000  Level Denver Center
Tue 08:26:41 AM 40.8233 -99.9178 65° Northeast 481 554 35,000  Level Denver Center
Tue 08:27:42 AM 40.8808 -99.7606 64° Northeast 477 549 35,000  Level Denver Center
Tue 08:28:43 AM 40.9381 -99.6019 64° Northeast 478 550 35,000  Level Denver Center
Tue 08:29:43 AM 40.9956 -99.4442 64° Northeast 479 551 35,000  Level Minneapolis Center
Tue 08:30:45 AM 41.0522 -99.2844 65° Northeast 477 549 35,000  Level Denver Center
Tue 08:31:46 AM 41.1086 -99.1236 65° Northeast 479 551 35,000  Level Denver Center
Tue 08:32:47 AM 41.1625 -98.9556 67° East 469 540 35,000  Level Denver Center
Tue 08:33:48 AM 41.1844 -98.7856 80° East 483 556 35,000 96 Level Denver Center
Tue 08:34:52 AM 41.2064 -98.5806 82° East 487 560 35,200 429 Climbing Minneapolis Center
Tue 08:35:54 AM 41.2278 -98.4200 80° East 480 552 35,900 726 Climbing Minneapolis Center
Tue 08:36:56 AM 41.2617 -98.2475 75° East 482 555 36,700 532 Climbing Minneapolis Center
Tue 08:37:58 AM 41.2933 -98.0761 76° East 480 552 37,000 145 Climbing Minneapolis Center
Tue 08:39:00 AM 41.3275 -97.8939 76° East 476 548 37,000  Level Minneapolis Center
Tue 08:40:01 AM 41.3583 -97.7236 76° East 474 545 37,000  Level Minneapolis Center
Tue 08:41:03 AM 41.3889 -97.5525 77° East 475 547 37,000  Level Minneapolis Center
Tue 08:42:05 AM 41.4269 -97.3453 76° East 479 551 37,000  Level Minneapolis Center
Tue 08:43:07 AM 41.4578 -97.1714 77° East 481 554 37,000  Level Minneapolis Center
Tue 08:44:09 AM 41.4886 -96.9958 77° East 486 559 37,000 48 Level Minneapolis Center
Tue 08:45:11 AM 41.5200 -96.8181 77° East 490 564 37,100  Climbing Minneapolis Center
Tue 08:46:13 AM 41.5500 -96.6394 77° East 491 565 37,000 -49 Descending Minneapolis Center
Tue 08:47:14 AM 41.5811 -96.4600 77° East 494 568 37,000  Level Minneapolis Center
Tue 08:48:16 AM 41.6125 -96.2597 78° East 496 571 37,000  Level Minneapolis Center
Tue 08:49:18 AM 41.6431 -96.0803 77° East 497 572 37,000  Level Minneapolis Center
Tue 08:50:20 AM 41.6731 -95.9144 76° East 496 571 37,000  Level Minneapolis Center
Tue 08:51:22 AM 41.7072 -95.6964 78° East 496 571 37,000  Level Minneapolis Center
Tue 08:52:24 AM 41.7367 -95.5128 78° East 502 578 37,000 387 Level Minneapolis Center
Tue 08:53:26 AM 41.7669 -95.3283 78° East 505 581 37,800 927 Climbing Minneapolis Center
Tue 08:54:27 AM 41.7947 -95.1483 78° East 497 572 38,900 585 Climbing Minneapolis Center
Tue 08:55:29 AM 41.8211 -94.9761 78° East 478 550 39,000 48 Climbing Minneapolis Center
Tue 08:56:31 AM 41.8481 -94.7983 78° East 483 556 39,000  Level Minneapolis Center
Tue 08:57:33 AM 41.8764 -94.6172 78° East 494 568 39,000  Level Minneapolis Center
Tue 08:58:35 AM 41.9094 -94.3967 79° East 502 578 39,000 49 Level Minneapolis Center
Tue 08:59:36 AM 41.9372 -94.2119 79° East 504 580 39,100 49 Climbing Minneapolis Center
Tue 09:00:38 AM 41.9661 -94.0256 78° East 509 586 39,100 -48 Level Minneapolis Center
Tue 09:01:40 AM 41.9906 -93.8511 79° East 507 583 39,000 -48 Descending Minneapolis Center
Tue 09:02:42 AM 42.0169 -93.6711 79° East 500 575 39,000  Level Minneapolis Center
Tue 09:03:43 AM 42.0472 -93.4558 79° East 494 568 39,000  Level Minneapolis Center
Tue 09:04:45 AM 42.0733 -93.2753 79° East 496 571 39,000  Level Minneapolis Center
Tue 09:05:47 AM 42.0978 -93.0956 80° East 493 567 39,000  Level Minneapolis Center
Tue 09:06:48 AM 42.1222 -92.9161 80° East 493 567 39,000  Level Minneapolis Center
Tue 09:07:50 AM 42.1475 -92.7369 79° East 491 565 39,000  Level Minneapolis Center
Tue 09:08:52 AM 42.1711 -92.5586 80° East 491 565 39,000 -333 Level Minneapolis Center
Tue 09:09:20 AM 42.1850 -92.4483 80° East 492 566 38,500 -1,000 Descending Chicago Center
Tue 09:10:22 AM 42.2097 -92.2647 80° East 500 575 37,500 -968 Descending Chicago Center
Tue 09:11:24 AM 42.2339 -92.0728 80° East 519 597 36,500 -919 Descending Chicago Center
Tue 09:12:26 AM 42.2586 -91.8869 80° East 515 593 35,600 -1,306 Descending Chicago Center
Tue 09:13:28 AM 42.2864 -91.6675 80° East 505 581 33,800 -1,306 Descending Chicago Center
Tue 09:14:30 AM 42.3086 -91.4839 81° East 505 581 32,900 -823 Descending Chicago Center
Tue 09:15:32 AM 42.3308 -91.2981 81° East 508 585 32,100 -435 Descending Chicago Center
Tue 09:16:34 AM 42.3533 -91.1106 81° East 514 592 32,000 -532 Descending Chicago Center
Tue 09:17:36 AM 42.3803 -90.8844 81° East 515 593 31,000 -1,161 Descending Chicago Center
Tue 09:18:38 AM 42.4022 -90.6944 81° East 517 595 29,600 -1,296 Descending Chicago Center
Tue 09:19:41 AM 42.4206 -90.5100 82° East 503 579 28,300 -1,200 Descending Chicago Center
Tue 09:20:43 AM 42.4394 -90.3328 82° East 485 558 27,100 -1,597 Descending Chicago Center
Tue 09:21:45 AM 42.4608 -90.1242 82° East 474 545 25,000 -1,935 Descending Chicago Center
Tue 09:22:47 AM 42.4769 -89.9500 83° East 472 543 23,100 -1,742 Descending Chicago Center
Tue 09:23:49 AM 42.4931 -89.7828 83° East 467 537 21,400 -1,790 Descending Chicago Center
Tue 09:24:51 AM 42.5122 -89.5897 82° East 445 512 19,400 -1,790 Descending Chicago Center
Tue 09:25:53 AM 42.5278 -89.4236 83° East 445 512 17,700 -1,645 Descending Chicago Center
Tue 09:26:55 AM 42.5436 -89.2581 83° East 444 511 16,000 -1,355 Descending Chicago Center
Tue 09:27:57 AM 42.5547 -89.0972 85° East 431 496 14,900 -968 Descending Chicago Center
Tue 09:28:59 AM 42.5078 -88.9428 112° Southeast 432 497 14,000 -968 Descending Chicago Center
Tue 09:30:01 AM 42.4544 -88.7631 112° Southeast 438 504 12,900 -1,403 Descending Chicago Center
Tue 09:31:03 AM 42.4103 -88.6153 112° Southeast 428 493 11,100 -1,403 Descending Chicago Center
Tue 09:32:05 AM 42.3633 -88.4814 115° Southeast 399 459 10,000 -528 Descending Chicago Center
Tue 09:33:08 AM 42.2961 -88.3789 132° Southeast 382 440 10,000  Level Chicago Center
Tue 09:34:10 AM 42.2253 -88.2694 131° Southeast 386 444 10,000  Level Chicago Center
Tue 09:35:12 AM 42.1403 -88.1389 131° Southeast 387 445 10,000  Level Chicago Center
Tue 09:35:36 AM 42.1167 -88.0833 120° Southeast 372 428 10,000 -467 Level Chicago TRACON
Tue 09:36:42 AM 42.1000 -87.9500 100° East 327 376 9,300 -762 Descending Chicago TRACON
Tue 09:37:42 AM 42.1000 -87.8500 90° East 278 320 8,400 -1,313 Descending Chicago TRACON
Tue 09:38:18 AM 42.0956 -87.8031 97° East 275 316 7,200 -2,388 Descending Chicago Center
Tue 09:39:20 AM 42.0867 -87.7208 98° East 239 275 4,500 -2,613 Descending Chicago Center

Login

Don't have an account? Register now (free) for customized features, flight alerts, and more!